sensor_id;sensor_type;location;lat;lon;timestamp;pressure;altitude;pressure_sealevel;temperature;humidity
6096;BME280;25081;42.698;23.298;2022-07-19T00:00:02;95858.51;;;19.52;53.90
6096;BME280;25081;42.698;23.298;2022-07-19T00:02:12;95858.51;;;19.52;53.90
6096;BME280;25081;42.698;23.298;2022-07-19T00:04:22;95860.88;;;19.43;54.16
6096;BME280;25081;42.698;23.298;2022-07-19T00:06:33;95861.09;;;19.39;54.34
6096;BME280;25081;42.698;23.298;2022-07-19T00:08:44;95864.25;;;19.26;55.04
6096;BME280;25081;42.698;23.298;2022-07-19T00:10:54;95864.25;;;19.26;55.04
6096;BME280;25081;42.698;23.298;2022-07-19T00:13:05;95861.19;;;19.15;55.76
6096;BME280;25081;42.698;23.298;2022-07-19T00:15:16;95861.19;;;19.15;55.76
6096;BME280;25081;42.698;23.298;2022-07-19T00:17:27;95864.09;;;19.08;56.05
6096;BME280;25081;42.698;23.298;2022-07-19T00:19:37;95864.53;;;18.95;56.52
6096;BME280;25081;42.698;23.298;2022-07-19T00:21:48;95862.36;;;18.95;56.69
6096;BME280;25081;42.698;23.298;2022-07-19T00:23:59;95862.02;;;18.88;56.90
6096;BME280;25081;42.698;23.298;2022-07-19T00:26:09;95857.52;;;18.99;56.71
6096;BME280;25081;42.698;23.298;2022-07-19T00:28:20;95860.81;;;19.01;56.50
6096;BME280;25081;42.698;23.298;2022-07-19T00:30:31;95860.81;;;19.01;56.50
6096;BME280;25081;42.698;23.298;2022-07-19T00:32:41;95859.56;;;18.84;57.34
6096;BME280;25081;42.698;23.298;2022-07-19T00:34:52;95864.55;;;18.71;57.95
6096;BME280;25081;42.698;23.298;2022-07-19T00:37:03;95862.19;;;18.77;57.75
6096;BME280;25081;42.698;23.298;2022-07-19T00:39:14;95859.78;;;18.80;57.38
6096;BME280;25081;42.698;23.298;2022-07-19T00:41:24;95859.78;;;18.80;57.38
6096;BME280;25081;42.698;23.298;2022-07-19T00:43:35;95861.39;;;18.54;58.76
6096;BME280;25081;42.698;23.298;2022-07-19T00:45:45;95861.39;;;18.54;58.76
6096;BME280;25081;42.698;23.298;2022-07-19T00:47:56;95863.55;;;18.55;58.74
6096;BME280;25081;42.698;23.298;2022-07-19T00:50:08;95864.45;;;18.63;58.50
6096;BME280;25081;42.698;23.298;2022-07-19T00:52:19;95856.69;;;18.45;59.05
6096;BME280;25081;42.698;23.298;2022-07-19T00:54:29;95865.62;;;18.48;59.07
6096;BME280;25081;42.698;23.298;2022-07-19T00:56:40;95855.52;;;18.38;59.42
6096;BME280;25081;42.698;23.298;2022-07-19T00:58:50;95860.30;;;18.31;59.33
6096;BME280;25081;42.698;23.298;2022-07-19T01:01:01;95860.30;;;18.31;59.33
6096;BME280;25081;42.698;23.298;2022-07-19T01:03:12;95864.72;;;18.40;59.58
6096;BME280;25081;42.698;23.298;2022-07-19T01:05:22;95854.97;;;18.36;59.59
6096;BME280;25081;42.698;23.298;2022-07-19T01:07:33;95854.41;;;18.34;59.64
6096;BME280;25081;42.698;23.298;2022-07-19T01:09:44;95851.94;;;18.33;59.79
6096;BME280;25081;42.698;23.298;2022-07-19T01:11:55;95852.09;;;18.23;60.06
6096;BME280;25081;42.698;23.298;2022-07-19T01:14:05;95849.98;;;18.25;60.08
6096;BME280;25081;42.698;23.298;2022-07-19T01:16:16;95847.84;;;18.27;60.00
6096;BME280;25081;42.698;23.298;2022-07-19T01:18:27;95851.91;;;18.30;60.00
6096;BME280;25081;42.698;23.298;2022-07-19T01:20:38;95856.09;;;18.18;60.06
6096;BME280;25081;42.698;23.298;2022-07-19T01:22:48;95856.09;;;18.18;60.06
6096;BME280;25081;42.698;23.298;2022-07-19T01:24:59;95850.98;;;18.19;60.43
6096;BME280;25081;42.698;23.298;2022-07-19T01:27:09;95852.09;;;18.23;60.30
6096;BME280;25081;42.698;23.298;2022-07-19T01:29:20;95850.98;;;18.19;60.44
6096;BME280;25081;42.698;23.298;2022-07-19T01:31:31;95848.74;;;18.14;60.63
6096;BME280;25081;42.698;23.298;2022-07-19T01:33:42;95861.02;;;18.02;60.99
6096;BME280;25081;42.698;23.298;2022-07-19T01:35:52;95846.73;;;18.04;61.07
6096;BME280;25081;42.698;23.298;2022-07-19T01:38:03;95843.73;;;18.00;61.14
6096;BME280;25081;42.698;23.298;2022-07-19T01:40:15;95843.30;;;18.09;60.91
6096;BME280;25081;42.698;23.298;2022-07-19T01:42:24;95839.81;;;18.11;60.90
6096;BME280;25081;42.698;23.298;2022-07-19T01:44:35;95844.16;;;18.14;60.73
6096;BME280;25081;42.698;23.298;2022-07-19T01:46:46;95844.67;;;18.11;60.81
6096;BME280;25081;42.698;23.298;2022-07-19T01:48:57;95846.81;;;18.09;60.94
6096;BME280;25081;42.698;23.298;2022-07-19T01:51:08;95850.32;;;18.10;60.92
6096;BME280;25081;42.698;23.298;2022-07-19T01:53:18;95846.53;;;18.08;60.96
6096;BME280;25081;42.698;23.298;2022-07-19T01:55:29;95844.29;;;18.02;61.13
6096;BME280;25081;42.698;23.298;2022-07-19T01:57:39;95850.20;;;17.99;61.15
6096;BME280;25081;42.698;23.298;2022-07-19T01:59:50;95846.13;;;17.97;61.30
6096;BME280;25081;42.698;23.298;2022-07-19T02:02:01;95843.42;;;17.97;61.36
6096;BME280;25081;42.698;23.298;2022-07-19T02:04:11;95840.11;;;17.92;61.54
6096;BME280;25081;42.698;23.298;2022-07-19T02:06:22;95845.23;;;17.91;61.52
6096;BME280;25081;42.698;23.298;2022-07-19T02:08:32;95847.41;;;17.94;61.49
6096;BME280;25081;42.698;23.298;2022-07-19T02:10:43;95846.58;;;17.91;61.61
6096;BME280;25081;42.698;23.298;2022-07-19T02:12:54;95848.23;;;17.95;61.56
6096;BME280;25081;42.698;23.298;2022-07-19T02:15:07;95847.34;;;17.87;61.68
6096;BME280;25081;42.698;23.298;2022-07-19T02:17:17;95844.64;;;17.87;61.71
6096;BME280;25081;42.698;23.298;2022-07-19T02:19:27;95847.56;;;17.85;61.72
6096;BME280;25081;42.698;23.298;2022-07-19T02:21:38;95844.67;;;17.89;61.65
6096;BME280;25081;42.698;23.298;2022-07-19T02:23:49;95847.26;;;17.82;61.88
6096;BME280;25081;42.698;23.298;2022-07-19T02:25:59;95846.98;;;17.81;61.92
6096;BME280;25081;42.698;23.298;2022-07-19T02:28:10;95848.84;;;17.78;62.00
6096;BME280;25081;42.698;23.298;2022-07-19T02:30:21;95845.60;;;17.78;61.95
6096;BME280;25081;42.698;23.298;2022-07-19T02:32:31;95855.86;;;17.79;62.02
6096;BME280;25081;42.698;23.298;2022-07-19T02:34:42;95849.03;;;17.73;62.16
6096;BME280;25081;42.698;23.298;2022-07-19T02:36:52;95846.22;;;17.85;61.73
6096;BME280;25081;42.698;23.298;2022-07-19T02:39:03;95851.25;;;17.77;61.99
6096;BME280;25081;42.698;23.298;2022-07-19T02:41:13;95854.31;;;17.85;61.75
6096;BME280;25081;42.698;23.298;2022-07-19T02:43:24;95852.94;;;17.83;61.89
6096;BME280;25081;42.698;23.298;2022-07-19T02:45:35;95856.19;;;17.85;61.75
6096;BME280;25081;42.698;23.298;2022-07-19T02:47:45;95853.16;;;17.79;61.82
6096;BME280;25081;42.698;23.298;2022-07-19T02:49:56;95859.09;;;17.78;61.94
6096;BME280;25081;42.698;23.298;2022-07-19T02:52:07;95862.63;;;17.81;61.92
6096;BME280;25081;42.698;23.298;2022-07-19T02:54:18;95858.44;;;17.71;62.06
6096;BME280;25081;42.698;23.298;2022-07-19T02:56:29;95861.27;;;17.64;62.26
6096;BME280;25081;42.698;23.298;2022-07-19T02:58:39;95866.92;;;17.63;62.45
6096;BME280;25081;42.698;23.298;2022-07-19T03:00:50;95871.57;;;17.48;62.83
6096;BME280;25081;42.698;23.298;2022-07-19T03:03:01;95865.42;;;17.53;62.81
6096;BME280;25081;42.698;23.298;2022-07-19T03:05:30;95874.98;;;17.43;62.94
6096;BME280;25081;42.698;23.298;2022-07-19T03:07:41;95870.03;;;17.55;62.70
6096;BME280;25081;42.698;23.298;2022-07-19T03:09:51;95866.33;;;17.58;62.63
6096;BME280;25081;42.698;23.298;2022-07-19T03:12:02;95867.97;;;17.42;62.95
6096;BME280;25081;42.698;23.298;2022-07-19T03:14:14;95869.03;;;17.41;62.98
6096;BME280;25081;42.698;23.298;2022-07-19T03:16:24;95870.00;;;17.52;62.75
6096;BME280;25081;42.698;23.298;2022-07-19T03:18:35;95864.23;;;17.46;62.92
6096;BME280;25081;42.698;23.298;2022-07-19T03:20:46;95874.14;;;17.40;63.08
6096;BME280;25081;42.698;23.298;2022-07-19T03:22:57;95878.19;;;17.40;63.12
6096;BME280;25081;42.698;23.298;2022-07-19T03:25:09;95875.23;;;17.42;63.17
6096;BME280;25081;42.698;23.298;2022-07-19T03:27:19;95874.52;;;17.30;63.42
6096;BME280;25081;42.698;23.298;2022-07-19T03:29:30;95878.19;;;17.40;63.36
6096;BME280;25081;42.698;23.298;2022-07-19T03:31:40;95874.27;;;17.48;63.02
6096;BME280;25081;42.698;23.298;2022-07-19T03:33:52;95877.80;;;17.68;62.22
6096;BME280;25081;42.698;23.298;2022-07-19T03:36:02;95878.90;;;17.86;61.77
6096;BME280;25081;42.698;23.298;2022-07-19T03:38:14;95881.93;;;17.92;61.39
6096;BME280;25081;42.698;23.298;2022-07-19T03:40:25;95891.45;;;18.17;60.58
6096;BME280;25081;42.698;23.298;2022-07-19T03:42:36;95892.13;;;18.07;60.72
6096;BME280;25081;42.698;23.298;2022-07-19T03:44:47;95894.97;;;17.98;61.14
6096;BME280;25081;42.698;23.298;2022-07-19T03:46:58;95894.97;;;17.98;61.14
6096;BME280;25081;42.698;23.298;2022-07-19T03:49:08;95897.70;;;17.81;61.50
6096;BME280;25081;42.698;23.298;2022-07-19T03:51:19;95896.32;;;17.98;61.16
6096;BME280;25081;42.698;23.298;2022-07-19T03:53:29;95892.79;;;18.39;60.01
6096;BME280;25081;42.698;23.298;2022-07-19T03:55:40;95895.17;;;18.81;58.59
6096;BME280;25081;42.698;23.298;2022-07-19T03:57:51;95898.74;;;19.11;57.50
6096;BME280;25081;42.698;23.298;2022-07-19T04:00:02;95892.61;;;18.67;58.46
6096;BME280;25081;42.698;23.298;2022-07-19T04:02:12;95892.61;;;18.67;58.46
6096;BME280;25081;42.698;23.298;2022-07-19T04:04:23;95897.35;;;18.60;58.14
6096;BME280;25081;42.698;23.298;2022-07-19T04:06:34;95910.01;;;17.94;61.07
6096;BME280;25081;42.698;23.298;2022-07-19T04:08:45;95900.37;;;17.98;60.33
6096;BME280;25081;42.698;23.298;2022-07-19T04:10:58;95900.37;;;17.98;60.33
6096;BME280;25081;42.698;23.298;2022-07-19T04:13:08;95911.18;;;17.81;61.62
6096;BME280;25081;42.698;23.298;2022-07-19T04:15:19;95911.18;;;17.81;61.62
6096;BME280;25081;42.698;23.298;2022-07-19T04:17:30;95908.62;;;17.72;61.88
6096;BME280;25081;42.698;23.298;2022-07-19T04:19:40;95902.66;;;17.70;62.17
6096;BME280;25081;42.698;23.298;2022-07-19T04:21:51;95909.61;;;17.85;61.76
6096;BME280;25081;42.698;23.298;2022-07-19T04:24:01;95910.14;;;17.85;61.95
6096;BME280;25081;42.698;23.298;2022-07-19T04:26:12;95908.09;;;18.11;61.14
6096;BME280;25081;42.698;23.298;2022-07-19T04:28:23;95911.05;;;17.90;61.74
6096;BME280;25081;42.698;23.298;2022-07-19T04:30:34;95909.05;;;18.02;61.55
6096;BME280;25081;42.698;23.298;2022-07-19T04:32:44;95905.90;;;18.08;61.40
6096;BME280;25081;42.698;23.298;2022-07-19T04:34:55;95911.72;;;17.81;62.34
6096;BME280;25081;42.698;23.298;2022-07-19T04:37:06;95909.33;;;17.84;62.39
6096;BME280;25081;42.698;23.298;2022-07-19T04:39:16;95915.45;;;18.16;61.44
6096;BME280;25081;42.698;23.298;2022-07-19T04:41:27;95912.59;;;18.66;60.42
6096;BME280;25081;42.698;23.298;2022-07-19T04:43:38;95910.73;;;19.55;57.46
6096;BME280;25081;42.698;23.298;2022-07-19T04:45:49;95908.98;;;20.13;55.26
6096;BME280;25081;42.698;23.298;2022-07-19T04:48:00;95909.37;;;21.20;52.53
6096;BME280;25081;42.698;23.298;2022-07-19T04:50:11;95913.48;;;21.91;50.06
6096;BME280;25081;42.698;23.298;2022-07-19T04:52:22;95912.91;;;22.05;49.41
6096;BME280;25081;42.698;23.298;2022-07-19T04:54:33;95910.34;;;22.54;48.52
6096;BME280;25081;42.698;23.298;2022-07-19T04:56:43;95913.08;;;22.46;47.95
6096;BME280;25081;42.698;23.298;2022-07-19T04:58:54;95914.86;;;21.63;49.97
6096;BME280;25081;42.698;23.298;2022-07-19T05:01:05;95915.64;;;22.02;49.34
6096;BME280;25081;42.698;23.298;2022-07-19T05:03:16;95911.58;;;21.69;49.89
6096;BME280;25081;42.698;23.298;2022-07-19T05:05:27;95912.67;;;21.68;50.08
6096;BME280;25081;42.698;23.298;2022-07-19T05:07:37;95912.14;;;21.66;50.16
6096;BME280;25081;42.698;23.298;2022-07-19T05:09:48;95918.92;;;21.74;50.06
6096;BME280;25081;42.698;23.298;2022-07-19T05:11:58;95907.25;;;21.58;50.91
6096;BME280;25081;42.698;23.298;2022-07-19T05:14:09;95909.97;;;21.65;50.10
6096;BME280;25081;42.698;23.298;2022-07-19T05:16:20;95916.17;;;21.25;51.54
6096;BME280;25081;42.698;23.298;2022-07-19T05:18:30;95920.27;;;21.51;50.61
6096;BME280;25081;42.698;23.298;2022-07-19T05:20:41;95910.23;;;21.69;50.25
6096;BME280;25081;42.698;23.298;2022-07-19T05:22:51;95917.53;;;22.14;49.14
6096;BME280;25081;42.698;23.298;2022-07-19T05:25:02;95911.85;;;21.70;50.32
6096;BME280;25081;42.698;23.298;2022-07-19T05:27:13;95914.28;;;21.89;49.52
6096;BME280;25081;42.698;23.298;2022-07-19T05:29:24;95916.16;;;22.17;49.01
6096;BME280;25081;42.698;23.298;2022-07-19T05:31:34;95918.30;;;23.02;47.13
6096;BME280;25081;42.698;23.298;2022-07-19T05:33:46;95912.94;;;24.55;43.42
6096;BME280;25081;42.698;23.298;2022-07-19T05:35:56;95922.49;;;23.29;45.74
6096;BME280;25081;42.698;23.298;2022-07-19T05:38:07;95918.86;;;24.83;42.52
6096;BME280;25081;42.698;23.298;2022-07-19T05:40:18;95915.84;;;25.06;41.86
6096;BME280;25081;42.698;23.298;2022-07-19T05:42:29;95918.51;;;24.90;41.65
6096;BME280;25081;42.698;23.298;2022-07-19T05:44:40;95920.57;;;24.00;43.79
6096;BME280;25081;42.698;23.298;2022-07-19T05:46:50;95925.89;;;23.86;44.49
6096;BME280;25081;42.698;23.298;2022-07-19T05:49:01;95915.28;;;25.45;40.90
6096;BME280;25081;42.698;23.298;2022-07-19T05:51:12;95915.64;;;24.34;42.65
6096;BME280;25081;42.698;23.298;2022-07-19T05:53:23;95918.41;;;23.29;45.31
6096;BME280;25081;42.698;23.298;2022-07-19T05:55:33;95912.91;;;24.34;43.37
6096;BME280;25081;42.698;23.298;2022-07-19T05:57:44;95912.63;;;24.80;42.04
6096;BME280;25081;42.698;23.298;2022-07-19T05:59:54;95909.83;;;26.84;38.21
6096;BME280;25081;42.698;23.298;2022-07-19T06:02:05;95906.39;;;27.64;36.57
6096;BME280;25081;42.698;23.298;2022-07-19T06:04:16;95910.09;;;26.27;39.01
6096;BME280;25081;42.698;23.298;2022-07-19T06:06:27;95907.11;;;26.56;38.91
6096;BME280;25081;42.698;23.298;2022-07-19T06:08:37;95906.41;;;27.86;35.90
6096;BME280;25081;42.698;23.298;2022-07-19T06:10:48;95902.58;;;28.89;34.06
6096;BME280;25081;42.698;23.298;2022-07-19T06:12:59;95905.32;;;28.30;34.25
6096;BME280;25081;42.698;23.298;2022-07-19T06:15:11;95904.93;;;26.56;38.12
6096;BME280;25081;42.698;23.298;2022-07-19T06:17:21;95903.23;;;26.13;38.99
6096;BME280;25081;42.698;23.298;2022-07-19T06:19:32;95908.00;;;26.79;37.61
6096;BME280;25081;42.698;23.298;2022-07-19T06:21:42;95910.93;;;27.21;36.83
6096;BME280;25081;42.698;23.298;2022-07-19T06:23:53;95905.28;;;28.61;34.50
6096;BME280;25081;42.698;23.298;2022-07-19T06:26:04;95902.91;;;28.48;34.37
6096;BME280;25081;42.698;23.298;2022-07-19T06:28:14;95894.45;;;29.13;33.61
6096;BME280;25081;42.698;23.298;2022-07-19T06:30:25;95891.81;;;29.79;32.07
6096;BME280;25081;42.698;23.298;2022-07-19T06:32:35;95887.58;;;30.55;31.13
6096;BME280;25081;42.698;23.298;2022-07-19T06:34:46;95889.60;;;31.04;30.14
6096;BME280;25081;42.698;23.298;2022-07-19T06:36:57;95889.89;;;30.97;30.41
6096;BME280;25081;42.698;23.298;2022-07-19T06:39:08;95890.76;;;30.27;31.56
6096;BME280;25081;42.698;23.298;2022-07-19T06:41:18;95890.22;;;31.25;29.59
6096;BME280;25081;42.698;23.298;2022-07-19T06:43:29;95888.94;;;29.04;32.63
6096;BME280;25081;42.698;23.298;2022-07-19T06:45:40;95890.55;;;28.68;33.98
6096;BME280;25081;42.698;23.298;2022-07-19T06:47:50;95904.00;;;27.49;35.63
6096;BME280;25081;42.698;23.298;2022-07-19T06:50:01;95889.43;;;28.29;34.39
6096;BME280;25081;42.698;23.298;2022-07-19T06:52:11;95887.87;;;29.74;31.86
6096;BME280;25081;42.698;23.298;2022-07-19T06:54:22;95889.95;;;29.17;32.01
6096;BME280;25081;42.698;23.298;2022-07-19T06:56:33;95887.93;;;28.63;33.91
6096;BME280;25081;42.698;23.298;2022-07-19T06:58:43;95884.77;;;29.41;32.07
6096;BME280;25081;42.698;23.298;2022-07-19T07:00:54;95889.59;;;29.01;32.81
6096;BME280;25081;42.698;23.298;2022-07-19T07:03:05;95887.42;;;28.80;32.79
6096;BME280;25081;42.698;23.298;2022-07-19T07:05:15;95885.40;;;30.07;30.87
6096;BME280;25081;42.698;23.298;2022-07-19T07:07:26;95890.46;;;28.70;32.79
6096;BME280;25081;42.698;23.298;2022-07-19T07:09:36;95883.94;;;28.97;32.80
6096;BME280;25081;42.698;23.298;2022-07-19T07:11:47;95885.00;;;29.07;32.51
6096;BME280;25081;42.698;23.298;2022-07-19T07:13:58;95879.98;;;30.28;29.94
6096;BME280;25081;42.698;23.298;2022-07-19T07:16:09;95882.44;;;30.68;29.01
6096;BME280;25081;42.698;23.298;2022-07-19T07:18:20;95881.23;;;30.25;29.90
6096;BME280;25081;42.698;23.298;2022-07-19T07:20:31;95881.14;;;29.78;31.01
6096;BME280;25081;42.698;23.298;2022-07-19T07:22:41;95877.79;;;30.13;29.94
6096;BME280;25081;42.698;23.298;2022-07-19T07:24:52;95876.48;;;30.81;27.72
6096;BME280;25081;42.698;23.298;2022-07-19T07:27:03;95875.02;;;31.04;26.95
6096;BME280;25081;42.698;23.298;2022-07-19T07:29:14;95878.40;;;31.72;26.32
6096;BME280;25081;42.698;23.298;2022-07-19T07:31:25;95880.44;;;29.66;28.89
6096;BME280;25081;42.698;23.298;2022-07-19T07:33:35;95873.14;;;30.58;28.10
6096;BME280;25081;42.698;23.298;2022-07-19T07:35:46;95872.09;;;30.94;27.20
6096;BME280;25081;42.698;23.298;2022-07-19T07:37:57;95873.09;;;29.55;29.19
6096;BME280;25081;42.698;23.298;2022-07-19T07:40:09;95882.05;;;28.38;28.95
6096;BME280;25081;42.698;23.298;2022-07-19T07:42:20;95877.70;;;27.00;31.28
6096;BME280;25081;42.698;23.298;2022-07-19T07:44:31;95869.95;;;28.39;30.60
6096;BME280;25081;42.698;23.298;2022-07-19T07:46:42;95870.57;;;30.06;27.24
6096;BME280;25081;42.698;23.298;2022-07-19T07:48:52;95870.13;;;30.27;25.76
6096;BME280;25081;42.698;23.298;2022-07-19T07:51:04;95875.30;;;27.35;30.17
6096;BME280;25081;42.698;23.298;2022-07-19T07:53:14;95866.67;;;28.77;28.28
6096;BME280;25081;42.698;23.298;2022-07-19T07:55:25;95868.61;;;28.28;28.78
6096;BME280;25081;42.698;23.298;2022-07-19T07:57:36;95873.22;;;28.19;29.15
6096;BME280;25081;42.698;23.298;2022-07-19T07:59:46;95868.61;;;29.40;26.75
6096;BME280;25081;42.698;23.298;2022-07-19T08:01:57;95865.45;;;30.19;25.81
6096;BME280;25081;42.698;23.298;2022-07-19T08:04:08;95860.12;;;30.23;25.93
6096;BME280;25081;42.698;23.298;2022-07-19T08:06:19;95856.91;;;29.45;26.58
6096;BME280;25081;42.698;23.298;2022-07-19T08:08:30;95865.45;;;30.19;25.56
6096;BME280;25081;42.698;23.298;2022-07-19T08:10:40;95852.69;;;30.06;26.30
6096;BME280;25081;42.698;23.298;2022-07-19T08:12:51;95864.01;;;29.29;26.23
6096;BME280;25081;42.698;23.298;2022-07-19T08:15:02;95862.50;;;28.60;26.74
6096;BME280;25081;42.698;23.298;2022-07-19T08:17:13;95870.03;;;27.61;28.12
6096;BME280;25081;42.698;23.298;2022-07-19T08:19:24;95865.48;;;27.68;28.67
6096;BME280;25081;42.698;23.298;2022-07-19T08:21:34;95859.57;;;29.74;26.07
6096;BME280;25081;42.698;23.298;2022-07-19T08:23:45;95865.22;;;29.17;26.38
6096;BME280;25081;42.698;23.298;2022-07-19T08:25:56;95859.89;;;26.50;29.84
6096;BME280;25081;42.698;23.298;2022-07-19T08:28:06;95869.09;;;26.27;30.11
6096;BME280;25081;42.698;23.298;2022-07-19T08:30:17;95867.89;;;27.24;28.64
6096;BME280;25081;42.698;23.298;2022-07-19T08:32:28;95863.44;;;26.65;28.79
6096;BME280;25081;42.698;23.298;2022-07-19T08:34:39;95858.05;;;28.33;26.76
6096;BME280;25081;42.698;23.298;2022-07-19T08:36:49;95862.91;;;27.49;27.57
6096;BME280;25081;42.698;23.298;2022-07-19T08:39:00;95860.38;;;26.91;28.23
6096;BME280;25081;42.698;23.298;2022-07-19T08:41:11;95867.72;;;27.32;27.37
6096;BME280;25081;42.698;23.298;2022-07-19T08:43:21;95875.19;;;26.90;28.42
6096;BME280;25081;42.698;23.298;2022-07-19T08:45:32;95862.03;;;26.78;28.86
6096;BME280;25081;42.698;23.298;2022-07-19T08:47:42;95856.74;;;25.67;30.23
6096;BME280;25081;42.698;23.298;2022-07-19T08:49:53;95841.66;;;26.02;30.25
6096;BME280;25081;42.698;23.298;2022-07-19T08:52:04;95846.05;;;27.33;28.62
6096;BME280;25081;42.698;23.298;2022-07-19T08:54:15;95839.83;;;28.26;27.50
6096;BME280;25081;42.698;23.298;2022-07-19T08:56:25;95845.97;;;29.43;25.90
6096;BME280;25081;42.698;23.298;2022-07-19T08:58:54;95850.47;;;28.87;26.45
6096;BME280;25081;42.698;23.298;2022-07-19T09:01:04;95840.97;;;29.62;25.63
6096;BME280;25081;42.698;23.298;2022-07-19T09:03:15;95843.60;;;29.82;25.39
6096;BME280;25081;42.698;23.298;2022-07-19T09:05:26;95838.81;;;27.93;27.50
6096;BME280;25081;42.698;23.298;2022-07-19T09:07:37;95836.53;;;29.12;26.24
6096;BME280;25081;42.698;23.298;2022-07-19T09:09:48;95850.91;;;29.00;25.81
6096;BME280;25081;42.698;23.298;2022-07-19T09:11:59;95838.39;;;27.77;28.25
6096;BME280;25081;42.698;23.298;2022-07-19T09:14:10;95837.62;;;28.56;27.27
6096;BME280;25081;42.698;23.298;2022-07-19T09:16:20;95833.84;;;27.61;28.25
6096;BME280;25081;42.698;23.298;2022-07-19T09:18:31;95835.21;;;27.84;27.99
6096;BME280;25081;42.698;23.298;2022-07-19T09:20:41;95829.34;;;28.08;27.43
6096;BME280;25081;42.698;23.298;2022-07-19T09:22:55;95846.23;;;27.48;27.80
6096;BME280;25081;42.698;23.298;2022-07-19T09:25:07;95837.52;;;27.12;28.66
6096;BME280;25081;42.698;23.298;2022-07-19T09:27:19;95827.33;;;28.70;27.14
6096;BME280;25081;42.698;23.298;2022-07-19T09:29:30;95826.73;;;30.33;24.30
6096;BME280;25081;42.698;23.298;2022-07-19T09:31:45;95827.23;;;30.26;24.51
6096;BME280;25081;42.698;23.298;2022-07-19T09:33:56;95822.57;;;31.06;23.65
6096;BME280;25081;42.698;23.298;2022-07-19T09:36:12;95825.44;;;31.04;23.65
6096;BME280;25081;42.698;23.298;2022-07-19T09:38:24;95824.95;;;32.04;22.70
6096;BME280;25081;42.698;23.298;2022-07-19T09:40:34;95827.42;;;30.74;23.74
6096;BME280;25081;42.698;23.298;2022-07-19T09:42:45;95822.17;;;29.15;25.74
6096;BME280;25081;42.698;23.298;2022-07-19T09:44:59;95811.36;;;30.00;24.65
6096;BME280;25081;42.698;23.298;2022-07-19T09:47:09;95812.98;;;31.33;22.74
6096;BME280;25081;42.698;23.298;2022-07-19T09:49:20;95805.48;;;32.64;21.96
6096;BME280;25081;42.698;23.298;2022-07-19T09:51:31;95808.01;;;29.45;24.63
6096;BME280;25081;42.698;23.298;2022-07-19T09:53:42;95813.65;;;28.50;26.48
6096;BME280;25081;42.698;23.298;2022-07-19T09:55:52;95816.68;;;28.69;26.42
6096;BME280;25081;42.698;23.298;2022-07-19T09:58:03;95822.21;;;28.18;27.66
6096;BME280;25081;42.698;23.298;2022-07-19T10:00:15;95805.06;;;30.08;25.39
6096;BME280;25081;42.698;23.298;2022-07-19T10:02:25;95810.80;;;30.09;24.46
6096;BME280;25081;42.698;23.298;2022-07-19T10:04:35;95812.84;;;29.74;24.81
6096;BME280;25081;42.698;23.298;2022-07-19T10:06:47;95810.89;;;28.88;26.09
6096;BME280;25081;42.698;23.298;2022-07-19T10:08:57;95807.89;;;28.78;26.38
6096;BME280;25081;42.698;23.298;2022-07-19T10:11:08;95811.88;;;28.92;26.81
6096;BME280;25081;42.698;23.298;2022-07-19T10:13:18;95803.32;;;29.45;26.23
6096;BME280;25081;42.698;23.298;2022-07-19T10:15:30;95803.22;;;29.74;26.01
6096;BME280;25081;42.698;23.298;2022-07-19T10:17:41;95800.92;;;30.61;25.08
6096;BME280;25081;42.698;23.298;2022-07-19T10:19:50;95800.86;;;30.02;25.51
6096;BME280;25081;42.698;23.298;2022-07-19T10:22:01;95812.23;;;27.82;28.01
6096;BME280;25081;42.698;23.298;2022-07-19T10:24:12;95808.97;;;26.24;30.36
6096;BME280;25081;42.698;23.298;2022-07-19T10:26:35;95812.88;;;26.21;30.60
6096;BME280;25081;42.698;23.298;2022-07-19T10:28:45;95807.07;;;26.25;30.81
6096;BME280;25081;42.698;23.298;2022-07-19T10:30:56;95805.41;;;26.40;30.58
6096;BME280;25081;42.698;23.298;2022-07-19T10:33:25;95808.42;;;26.52;30.16
6096;BME280;25081;42.698;23.298;2022-07-19T10:35:30;95796.03;;;26.94;29.56
6096;BME280;25081;42.698;23.298;2022-07-19T10:37:44;95787.49;;;28.05;28.58
6096;BME280;25081;42.698;23.298;2022-07-19T10:39:58;95787.13;;;28.09;27.56
6096;BME280;25081;42.698;23.298;2022-07-19T10:42:16;95794.13;;;28.52;27.17
6096;BME280;25081;42.698;23.298;2022-07-19T10:44:26;95799.50;;;27.33;28.80
6096;BME280;25081;42.698;23.298;2022-07-19T10:46:37;95801.09;;;26.09;31.05
6096;BME280;25081;42.698;23.298;2022-07-19T10:48:48;95801.79;;;26.01;31.36
6096;BME280;25081;42.698;23.298;2022-07-19T10:50:59;95798.38;;;26.34;30.74
6096;BME280;25081;42.698;23.298;2022-07-19T10:53:09;95775.06;;;27.68;28.67
6096;BME280;25081;42.698;23.298;2022-07-19T10:55:26;95783.42;;;26.18;30.32
6096;BME280;25081;42.698;23.298;2022-07-19T10:57:38;95784.11;;;25.96;31.04
6096;BME280;25081;42.698;23.298;2022-07-19T10:59:48;95784.12;;;27.34;29.44
6096;BME280;25081;42.698;23.298;2022-07-19T11:01:59;95775.33;;;28.65;27.98
6096;BME280;25081;42.698;23.298;2022-07-19T11:04:27;95767.66;;;29.60;26.05
6096;BME280;25081;42.698;23.298;2022-07-19T11:06:38;95761.69;;;29.41;26.38
6096;BME280;25081;42.698;23.298;2022-07-19T11:08:51;95762.64;;;28.95;26.88
6096;BME280;25081;42.698;23.298;2022-07-19T11:11:05;95764.95;;;27.97;29.05
6096;BME280;25081;42.698;23.298;2022-07-19T11:13:16;95770.38;;;27.01;29.48
6096;BME280;25081;42.698;23.298;2022-07-19T11:15:26;95764.55;;;27.92;28.71
6096;BME280;25081;42.698;23.298;2022-07-19T11:17:37;95761.64;;;28.28;27.98
6096;BME280;25081;42.698;23.298;2022-07-19T11:20:02;95758.78;;;28.02;28.23
6096;BME280;25081;42.698;23.298;2022-07-19T11:22:12;95760.23;;;28.00;28.44
6096;BME280;25081;42.698;23.298;2022-07-19T11:24:23;95751.75;;;28.18;28.16
6096;BME280;25081;42.698;23.298;2022-07-19T11:26:37;95757.77;;;27.89;28.41
6096;BME280;25081;42.698;23.298;2022-07-19T11:28:48;95760.45;;;27.38;28.98
6096;BME280;25081;42.698;23.298;2022-07-19T11:30:58;95755.87;;;27.14;29.85
6096;BME280;25081;42.698;23.298;2022-07-19T11:33:09;95754.59;;;27.54;28.88